TimeHST,TemperatureF,Dew PointF,Humidity,Sea Level PressureIn,VisibilityMPH,Wind Direction,Wind SpeedMPH,Gust SpeedMPH,PrecipitationIn,Events,Conditions,WindDirDegrees,DateUTC
12:45 AM,77.0,71.6,83,30.10,10.0,ENE,16.1,21.9,0.04,Rain,Light Rain,60,2013-09-29 10:45:00
12:53 AM,77.0,71.1,82,30.09,10.0,ENE,16.1,-,0.04,,Scattered Clouds,60,2013-09-29 10:53:00
1:53 AM,78.1,70.0,76,30.07,10.0,ENE,16.1,-,N/A,,Mostly Cloudy,60,2013-09-29 11:53:00
2:53 AM,77.0,70.0,79,30.05,10.0,ENE,18.4,-,0.00,,Scattered Clouds,70,2013-09-29 12:53:00
3:53 AM,77.0,70.0,79,30.04,10.0,NE,15.0,-,N/A,,Clear,50,2013-09-29 13:53:00
4:53 AM,77.0,69.1,76,30.05,10.0,NE,16.1,-,N/A,,Scattered Clouds,40,2013-09-29 14:53:00
5:36 AM,77.0,69.8,78,30.06,10.0,ENE,15.0,-,N/A,,Mostly Cloudy,60,2013-09-29 15:36:00
5:49 AM,77.0,69.8,78,30.06,10.0,NE,19.6,-,N/A,,Mostly Cloudy,50,2013-09-29 15:49:00
5:53 AM,78.1,68.0,71,30.06,10.0,NE,17.3,-,N/A,,Mostly Cloudy,50,2013-09-29 15:53:00
6:53 AM,78.1,69.1,74,30.06,10.0,ENE,13.8,-,N/A,,Scattered Clouds,60,2013-09-29 16:53:00
7:53 AM,79.0,69.1,72,30.08,10.0,NE,19.6,-,N/A,,Mostly Cloudy,50,2013-09-29 17:53:00
8:00 AM,78.8,69.8,74,30.08,10.0,NE,20.7,-,N/A,,Overcast,50,2013-09-29 18:00:00
8:53 AM,81.0,68.0,65,30.09,10.0,ENE,18.4,-,N/A,,Clear,60,2013-09-29 18:53:00
9:53 AM,81.0,68.0,65,30.09,10.0,NE,18.4,-,N/A,,Scattered Clouds,40,2013-09-29 19:53:00
10:53 AM,82.0,71.1,69,30.08,10.0,ENE,13.8,-,N/A,,Partly Cloudy,60,2013-09-29 20:53:00
11:53 AM,84.0,70.0,63,30.06,10.0,NE,17.3,-,N/A,,Scattered Clouds,40,2013-09-29 21:53:00
12:53 PM,84.9,68.0,57,30.04,10.0,NE,19.6,-,N/A,,Partly Cloudy,50,2013-09-29 22:53:00
1:53 PM,84.9,69.1,59,30.01,10.0,NE,16.1,-,N/A,,Partly Cloudy,50,2013-09-29 23:53:00
2:53 PM,82.0,71.1,69,30.00,10.0,NE,15.0,-,N/A,,Mostly Cloudy,40,2013-09-30 00:53:00
3:05 PM,82.4,71.6,70,30.01,10.0,NNE,13.8,-,N/A,,Scattered Clouds,20,2013-09-30 01:05:00
3:53 PM,82.9,69.1,63,29.99,10.0,NNE,15.0,-,N/A,,Partly Cloudy,30,2013-09-30 01:53:00
4:51 PM,80.6,69.8,70,29.99,10.0,NE,17.3,-,N/A,,Mostly Cloudy,40,2013-09-30 02:51:00
4:53 PM,80.1,70.0,71,29.99,10.0,NNE,17.3,-,N/A,,Mostly Cloudy,30,2013-09-30 02:53:00
5:05 PM,80.6,69.8,70,29.99,10.0,NE,16.1,-,N/A,,Scattered Clouds,40,2013-09-30 03:05:00
5:53 PM,79.0,69.1,72,29.99,10.0,NE,15.0,-,N/A,,Mostly Cloudy,50,2013-09-30 03:53:00
6:53 PM,78.1,69.1,74,30.00,10.0,NE,15.0,-,N/A,,Clear,40,2013-09-30 04:53:00
7:53 PM,79.0,69.1,72,30.02,10.0,NE,18.4,-,N/A,,Mostly Cloudy,40,2013-09-30 05:53:00
8:53 PM,78.1,70.0,76,30.04,10.0,NE,20.7,-,N/A,,Mostly Cloudy,50,2013-09-30 06:53:00
9:53 PM,78.1,70.0,76,30.04,10.0,ENE,10.4,-,0.00,,Partly Cloudy,60,2013-09-30 07:53:00
10:31 PM,78.8,71.6,78,30.05,10.0,NE,11.5,-,N/A,,Mostly Cloudy,40,2013-09-30 08:31:00
10:46 PM,78.8,69.8,74,30.04,10.0,ENE,12.7,-,N/A,,Scattered Clouds,60,2013-09-30 08:46:00
10:53 PM,78.1,71.1,79,30.04,10.0,ENE,12.7,-,N/A,,Partly Cloudy,60,2013-09-30 08:53:00
11:53 PM,78.1,70.0,76,30.02,10.0,ENE,11.5,-,N/A,,Clear,70,2013-09-30 09:53:00